sensor_id;sensor_type;location;lat;lon;timestamp;P1;durP1;ratioP1;P2;durP2;ratioP2
74158;SDS011;62511;47.970;11.774;2023-08-20T00:00:49;4.78;;;2.67;;
74158;SDS011;62511;47.970;11.774;2023-08-20T00:03:35;4.07;;;2.53;;
74158;SDS011;62511;47.970;11.774;2023-08-20T00:06:19;4.90;;;3.08;;
74158;SDS011;62511;47.970;11.774;2023-08-20T00:08:53;6.60;;;3.17;;
74158;SDS011;62511;47.970;11.774;2023-08-20T00:11:24;4.53;;;3.00;;
74158;SDS011;62511;47.970;11.774;2023-08-20T00:13:50;5.50;;;2.60;;
74158;SDS011;62511;47.970;11.774;2023-08-20T00:16:22;4.28;;;3.17;;
74158;SDS011;62511;47.970;11.774;2023-08-20T00:18:59;6.55;;;2.83;;
74158;SDS011;62511;47.970;11.774;2023-08-20T00:24:03;5.10;;;2.75;;
74158;SDS011;62511;47.970;11.774;2023-08-20T00:26:30;7.25;;;2.88;;
74158;SDS011;62511;47.970;11.774;2023-08-20T00:29:03;5.90;;;3.00;;
74158;SDS011;62511;47.970;11.774;2023-08-20T00:31:29;5.72;;;3.10;;
74158;SDS011;62511;47.970;11.774;2023-08-20T00:34:08;7.07;;;3.00;;
74158;SDS011;62511;47.970;11.774;2023-08-20T00:36:42;6.50;;;3.00;;
74158;SDS011;62511;47.970;11.774;2023-08-20T00:39:28;6.70;;;3.03;;
74158;SDS011;62511;47.970;11.774;2023-08-20T00:45:24;7.25;;;3.33;;
74158;SDS011;62511;47.970;11.774;2023-08-20T00:48:01;6.28;;;3.53;;
74158;SDS011;62511;47.970;11.774;2023-08-20T00:50:30;4.45;;;3.00;;
74158;SDS011;62511;47.970;11.774;2023-08-20T00:53:05;5.43;;;3.10;;
74158;SDS011;62511;47.970;11.774;2023-08-20T00:55:35;6.85;;;3.22;;
74158;SDS011;62511;47.970;11.774;2023-08-20T00:58:04;4.95;;;3.15;;
74158;SDS011;62511;47.970;11.774;2023-08-20T01:00:30;4.72;;;3.17;;
74158;SDS011;62511;47.970;11.774;2023-08-20T01:02:56;7.93;;;2.90;;
74158;SDS011;62511;47.970;11.774;2023-08-20T01:05:24;4.13;;;2.95;;
74158;SDS011;62511;47.970;11.774;2023-08-20T01:11:24;5.25;;;3.28;;
74158;SDS011;62511;47.970;11.774;2023-08-20T01:14:21;6.65;;;3.10;;
74158;SDS011;62511;47.970;11.774;2023-08-20T01:16:57;10.48;;;2.90;;
74158;SDS011;62511;47.970;11.774;2023-08-20T01:19:34;3.22;;;2.83;;
74158;SDS011;62511;47.970;11.774;2023-08-20T01:29:33;3.45;;;2.45;;
74158;SDS011;62511;47.970;11.774;2023-08-20T01:32:03;5.45;;;2.38;;
74158;SDS011;62511;47.970;11.774;2023-08-20T01:34:36;5.57;;;3.03;;
74158;SDS011;62511;47.970;11.774;2023-08-20T01:37:07;6.30;;;2.95;;
74158;SDS011;62511;47.970;11.774;2023-08-20T01:39:50;4.53;;;2.90;;
74158;SDS011;62511;47.970;11.774;2023-08-20T01:42:22;7.43;;;3.20;;
74158;SDS011;62511;47.970;11.774;2023-08-20T01:44:54;5.95;;;3.10;;
74158;SDS011;62511;47.970;11.774;2023-08-20T01:47:20;5.85;;;3.38;;
74158;SDS011;62511;47.970;11.774;2023-08-20T01:50:08;4.90;;;3.70;;
74158;SDS011;62511;47.970;11.774;2023-08-20T01:53:01;7.07;;;3.15;;
74158;SDS011;62511;47.970;11.774;2023-08-20T01:55:49;6.22;;;3.00;;
74158;SDS011;62511;47.970;11.774;2023-08-20T01:58:18;6.22;;;3.47;;
74158;SDS011;62511;47.970;11.774;2023-08-20T02:00:47;5.30;;;3.53;;
74158;SDS011;62511;47.970;11.774;2023-08-20T02:03:14;5.13;;;3.00;;
74158;SDS011;62511;47.970;11.774;2023-08-20T02:05:40;6.60;;;3.58;;
74158;SDS011;62511;47.970;11.774;2023-08-20T02:08:08;6.82;;;2.83;;
74158;SDS011;62511;47.970;11.774;2023-08-20T02:10:38;4.85;;;3.10;;
74158;SDS011;62511;47.970;11.774;2023-08-20T02:13:04;3.83;;;2.60;;
74158;SDS011;62511;47.970;11.774;2023-08-20T02:15:33;4.43;;;3.45;;
74158;SDS011;62511;47.970;11.774;2023-08-20T02:18:11;6.32;;;3.65;;
74158;SDS011;62511;47.970;11.774;2023-08-20T02:20:37;6.93;;;3.33;;
74158;SDS011;62511;47.970;11.774;2023-08-20T02:23:37;4.85;;;3.00;;
74158;SDS011;62511;47.970;11.774;2023-08-20T02:26:26;7.35;;;3.08;;
74158;SDS011;62511;47.970;11.774;2023-08-20T02:29:04;4.18;;;2.97;;
74158;SDS011;62511;47.970;11.774;2023-08-20T02:31:39;5.95;;;3.22;;
74158;SDS011;62511;47.970;11.774;2023-08-20T02:34:05;6.80;;;3.22;;
74158;SDS011;62511;47.970;11.774;2023-08-20T02:36:34;4.85;;;3.25;;
74158;SDS011;62511;47.970;11.774;2023-08-20T02:39:35;5.18;;;3.15;;
74158;SDS011;62511;47.970;11.774;2023-08-20T02:42:03;3.88;;;2.85;;
74158;SDS011;62511;47.970;11.774;2023-08-20T02:44:48;8.85;;;3.45;;
74158;SDS011;62511;47.970;11.774;2023-08-20T02:47:14;7.60;;;3.13;;
74158;SDS011;62511;47.970;11.774;2023-08-20T02:49:41;5.43;;;3.40;;
74158;SDS011;62511;47.970;11.774;2023-08-20T02:52:13;5.90;;;3.17;;
74158;SDS011;62511;47.970;11.774;2023-08-20T02:54:43;10.15;;;3.30;;
74158;SDS011;62511;47.970;11.774;2023-08-20T02:57:09;7.68;;;2.95;;
74158;SDS011;62511;47.970;11.774;2023-08-20T02:59:42;5.65;;;3.10;;
74158;SDS011;62511;47.970;11.774;2023-08-20T03:02:15;6.82;;;3.17;;
74158;SDS011;62511;47.970;11.774;2023-08-20T03:04:51;6.75;;;2.97;;
74158;SDS011;62511;47.970;11.774;2023-08-20T03:07:22;5.75;;;3.20;;
74158;SDS011;62511;47.970;11.774;2023-08-20T03:10:15;6.28;;;3.30;;
74158;SDS011;62511;47.970;11.774;2023-08-20T03:12:43;7.47;;;3.17;;
74158;SDS011;62511;47.970;11.774;2023-08-20T03:15:21;5.82;;;3.08;;
74158;SDS011;62511;47.970;11.774;2023-08-20T03:17:50;6.55;;;3.50;;
74158;SDS011;62511;47.970;11.774;2023-08-20T03:20:17;5.30;;;3.30;;
74158;SDS011;62511;47.970;11.774;2023-08-20T03:22:46;6.63;;;3.38;;
74158;SDS011;62511;47.970;11.774;2023-08-20T03:25:12;4.57;;;2.88;;
74158;SDS011;62511;47.970;11.774;2023-08-20T03:27:41;5.70;;;3.70;;
74158;SDS011;62511;47.970;11.774;2023-08-20T03:30:32;5.00;;;3.08;;
74158;SDS011;62511;47.970;11.774;2023-08-20T03:33:07;8.60;;;3.45;;
74158;SDS011;62511;47.970;11.774;2023-08-20T03:35:33;4.18;;;2.95;;
74158;SDS011;62511;47.970;11.774;2023-08-20T03:38:02;5.05;;;3.25;;
74158;SDS011;62511;47.970;11.774;2023-08-20T03:40:38;6.57;;;3.30;;
74158;SDS011;62511;47.970;11.774;2023-08-20T03:43:10;5.57;;;3.22;;
74158;SDS011;62511;47.970;11.774;2023-08-20T03:45:39;4.93;;;3.13;;
74158;SDS011;62511;47.970;11.774;2023-08-20T03:48:16;7.68;;;3.53;;
74158;SDS011;62511;47.970;11.774;2023-08-20T03:50:46;6.65;;;2.72;;
74158;SDS011;62511;47.970;11.774;2023-08-20T03:53:14;6.30;;;3.00;;
74158;SDS011;62511;47.970;11.774;2023-08-20T03:55:49;5.53;;;3.20;;
74158;SDS011;62511;47.970;11.774;2023-08-20T03:58:17;6.88;;;3.28;;
74158;SDS011;62511;47.970;11.774;2023-08-20T04:00:49;5.57;;;3.08;;
74158;SDS011;62511;47.970;11.774;2023-08-20T04:03:40;5.97;;;2.83;;
74158;SDS011;62511;47.970;11.774;2023-08-20T04:06:14;7.15;;;3.55;;
74158;SDS011;62511;47.970;11.774;2023-08-20T04:09:15;4.82;;;2.97;;
74158;SDS011;62511;47.970;11.774;2023-08-20T04:11:41;4.53;;;2.88;;
74158;SDS011;62511;47.970;11.774;2023-08-20T04:14:11;7.47;;;2.95;;
74158;SDS011;62511;47.970;11.774;2023-08-20T04:16:41;4.65;;;2.92;;
74158;SDS011;62511;47.970;11.774;2023-08-20T04:19:13;5.13;;;3.33;;
74158;SDS011;62511;47.970;11.774;2023-08-20T04:21:50;5.13;;;2.88;;
74158;SDS011;62511;47.970;11.774;2023-08-20T04:24:22;7.68;;;3.30;;
74158;SDS011;62511;47.970;11.774;2023-08-20T04:27:11;4.88;;;2.92;;
74158;SDS011;62511;47.970;11.774;2023-08-20T04:30:02;5.15;;;3.20;;
74158;SDS011;62511;47.970;11.774;2023-08-20T04:32:47;5.90;;;3.08;;
74158;SDS011;62511;47.970;11.774;2023-08-20T04:35:36;3.47;;;2.63;;
74158;SDS011;62511;47.970;11.774;2023-08-20T04:38:12;4.28;;;2.92;;
74158;SDS011;62511;47.970;11.774;2023-08-20T04:40:46;6.50;;;3.10;;
74158;SDS011;62511;47.970;11.774;2023-08-20T04:43:53;7.40;;;2.97;;
74158;SDS011;62511;47.970;11.774;2023-08-20T04:46:27;5.70;;;3.10;;
74158;SDS011;62511;47.970;11.774;2023-08-20T04:48:58;6.93;;;2.88;;
74158;SDS011;62511;47.970;11.774;2023-08-20T04:54:05;7.63;;;3.05;;
74158;SDS011;62511;47.970;11.774;2023-08-20T04:56:51;4.47;;;3.20;;
74158;SDS011;62511;47.970;11.774;2023-08-20T04:59:18;8.63;;;4.95;;
74158;SDS011;62511;47.970;11.774;2023-08-20T05:01:51;12.13;;;5.53;;
74158;SDS011;62511;47.970;11.774;2023-08-20T05:04:32;10.38;;;4.53;;
74158;SDS011;62511;47.970;11.774;2023-08-20T05:07:05;6.22;;;3.08;;
74158;SDS011;62511;47.970;11.774;2023-08-20T05:09:41;5.30;;;2.85;;
74158;SDS011;62511;47.970;11.774;2023-08-20T05:12:11;6.35;;;3.30;;
74158;SDS011;62511;47.970;11.774;2023-08-20T05:14:37;4.05;;;3.10;;
74158;SDS011;62511;47.970;11.774;2023-08-20T05:17:14;8.95;;;3.50;;
74158;SDS011;62511;47.970;11.774;2023-08-20T05:20:01;9.75;;;4.57;;
74158;SDS011;62511;47.970;11.774;2023-08-20T05:22:58;11.35;;;5.00;;
74158;SDS011;62511;47.970;11.774;2023-08-20T05:26:01;5.60;;;3.83;;
74158;SDS011;62511;47.970;11.774;2023-08-20T05:28:51;4.80;;;3.13;;
74158;SDS011;62511;47.970;11.774;2023-08-20T05:31:46;6.05;;;3.30;;
74158;SDS011;62511;47.970;11.774;2023-08-20T05:36:40;5.25;;;3.28;;
74158;SDS011;62511;47.970;11.774;2023-08-20T05:39:13;8.73;;;5.03;;
74158;SDS011;62511;47.970;11.774;2023-08-20T05:41:42;7.43;;;3.30;;
74158;SDS011;62511;47.970;11.774;2023-08-20T05:44:13;7.03;;;3.22;;
74158;SDS011;62511;47.970;11.774;2023-08-20T05:46:54;4.45;;;2.60;;
74158;SDS011;62511;47.970;11.774;2023-08-20T05:49:25;4.57;;;2.78;;
74158;SDS011;62511;47.970;11.774;2023-08-20T05:51:52;11.25;;;3.10;;
74158;SDS011;62511;47.970;11.774;2023-08-20T05:54:23;6.93;;;2.67;;
74158;SDS011;62511;47.970;11.774;2023-08-20T05:57:20;5.90;;;2.80;;
74158;SDS011;62511;47.970;11.774;2023-08-20T06:00:05;8.02;;;3.20;;
74158;SDS011;62511;47.970;11.774;2023-08-20T06:02:58;4.97;;;2.33;;
74158;SDS011;62511;47.970;11.774;2023-08-20T06:05:24;5.75;;;2.95;;
74158;SDS011;62511;47.970;11.774;2023-08-20T06:07:58;3.65;;;2.25;;
74158;SDS011;62511;47.970;11.774;2023-08-20T06:10:38;3.85;;;2.67;;
74158;SDS011;62511;47.970;11.774;2023-08-20T06:13:34;5.97;;;2.95;;
74158;SDS011;62511;47.970;11.774;2023-08-20T06:16:06;7.32;;;3.83;;
74158;SDS011;62511;47.970;11.774;2023-08-20T06:18:36;6.18;;;4.05;;
74158;SDS011;62511;47.970;11.774;2023-08-20T06:21:06;6.80;;;4.45;;
74158;SDS011;62511;47.970;11.774;2023-08-20T06:23:34;10.52;;;5.43;;
74158;SDS011;62511;47.970;11.774;2023-08-20T06:26:05;8.40;;;4.88;;
74158;SDS011;62511;47.970;11.774;2023-08-20T06:28:32;7.68;;;4.25;;
74158;SDS011;62511;47.970;11.774;2023-08-20T06:31:02;8.57;;;3.83;;
74158;SDS011;62511;47.970;11.774;2023-08-20T06:36:19;6.05;;;2.70;;
74158;SDS011;62511;47.970;11.774;2023-08-20T06:39:08;5.45;;;2.53;;
74158;SDS011;62511;47.970;11.774;2023-08-20T06:41:36;4.18;;;2.47;;
74158;SDS011;62511;47.970;11.774;2023-08-20T06:44:07;5.60;;;2.53;;
74158;SDS011;62511;47.970;11.774;2023-08-20T06:47:11;6.68;;;3.03;;
74158;SDS011;62511;47.970;11.774;2023-08-20T06:49:40;5.03;;;2.42;;
74158;SDS011;62511;47.970;11.774;2023-08-20T06:52:06;7.07;;;2.88;;
74158;SDS011;62511;47.970;11.774;2023-08-20T06:54:36;5.10;;;2.88;;
74158;SDS011;62511;47.970;11.774;2023-08-20T06:57:15;8.70;;;2.80;;
74158;SDS011;62511;47.970;11.774;2023-08-20T06:59:50;5.93;;;2.90;;
74158;SDS011;62511;47.970;11.774;2023-08-20T07:02:55;3.78;;;2.38;;
74158;SDS011;62511;47.970;11.774;2023-08-20T07:05:20;5.57;;;2.70;;
74158;SDS011;62511;47.970;11.774;2023-08-20T07:08:08;4.95;;;2.40;;
74158;SDS011;62511;47.970;11.774;2023-08-20T07:10:44;4.10;;;2.47;;
74158;SDS011;62511;47.970;11.774;2023-08-20T07:13:16;7.40;;;2.70;;
74158;SDS011;62511;47.970;11.774;2023-08-20T07:15:48;3.90;;;2.70;;
74158;SDS011;62511;47.970;11.774;2023-08-20T07:18:20;8.95;;;4.13;;
74158;SDS011;62511;47.970;11.774;2023-08-20T07:20:49;7.55;;;5.00;;
74158;SDS011;62511;47.970;11.774;2023-08-20T07:23:16;5.28;;;3.50;;
74158;SDS011;62511;47.970;11.774;2023-08-20T07:25:42;3.78;;;2.55;;
74158;SDS011;62511;47.970;11.774;2023-08-20T07:28:10;5.15;;;3.20;;
74158;SDS011;62511;47.970;11.774;2023-08-20T07:30:36;4.82;;;2.63;;
74158;SDS011;62511;47.970;11.774;2023-08-20T07:33:02;3.58;;;2.83;;
74158;SDS011;62511;47.970;11.774;2023-08-20T07:35:41;6.50;;;2.58;;
74158;SDS011;62511;47.970;11.774;2023-08-20T07:38:09;4.32;;;2.45;;
74158;SDS011;62511;47.970;11.774;2023-08-20T07:40:36;6.55;;;2.47;;
74158;SDS011;62511;47.970;11.774;2023-08-20T07:43:06;3.95;;;2.17;;
74158;SDS011;62511;47.970;11.774;2023-08-20T07:45:32;4.65;;;2.30;;
74158;SDS011;62511;47.970;11.774;2023-08-20T07:47:58;7.03;;;2.50;;
74158;SDS011;62511;47.970;11.774;2023-08-20T07:50:24;4.47;;;2.67;;
74158;SDS011;62511;47.970;11.774;2023-08-20T07:52:51;7.60;;;2.92;;
74158;SDS011;62511;47.970;11.774;2023-08-20T07:55:17;5.70;;;2.47;;
74158;SDS011;62511;47.970;11.774;2023-08-20T07:57:43;6.00;;;3.00;;
74158;SDS011;62511;47.970;11.774;2023-08-20T08:00:14;6.13;;;2.75;;
74158;SDS011;62511;47.970;11.774;2023-08-20T08:02:40;5.57;;;2.45;;
74158;SDS011;62511;47.970;11.774;2023-08-20T08:05:13;4.25;;;2.40;;
74158;SDS011;62511;47.970;11.774;2023-08-20T08:07:40;4.53;;;2.63;;
74158;SDS011;62511;47.970;11.774;2023-08-20T08:10:38;4.55;;;2.60;;
74158;SDS011;62511;47.970;11.774;2023-08-20T08:13:14;5.90;;;2.72;;
74158;SDS011;62511;47.970;11.774;2023-08-20T08:15:40;5.97;;;2.40;;
74158;SDS011;62511;47.970;11.774;2023-08-20T08:18:06;5.72;;;2.28;;
74158;SDS011;62511;47.970;11.774;2023-08-20T08:20:32;7.53;;;2.40;;
74158;SDS011;62511;47.970;11.774;2023-08-20T08:23:05;5.25;;;2.50;;
74158;SDS011;62511;47.970;11.774;2023-08-20T08:25:33;5.82;;;2.55;;
74158;SDS011;62511;47.970;11.774;2023-08-20T08:28:00;5.40;;;2.15;;
74158;SDS011;62511;47.970;11.774;2023-08-20T08:30:29;4.78;;;2.28;;
74158;SDS011;62511;47.970;11.774;2023-08-20T08:32:55;6.50;;;2.70;;
74158;SDS011;62511;47.970;11.774;2023-08-20T08:35:21;5.57;;;2.80;;
74158;SDS011;62511;47.970;11.774;2023-08-20T08:37:50;6.88;;;2.60;;
74158;SDS011;62511;47.970;11.774;2023-08-20T08:40:16;6.45;;;2.38;;
74158;SDS011;62511;47.970;11.774;2023-08-20T08:42:43;5.22;;;2.70;;
74158;SDS011;62511;47.970;11.774;2023-08-20T08:45:18;4.65;;;2.40;;
74158;SDS011;62511;47.970;11.774;2023-08-20T08:47:45;3.25;;;2.33;;
74158;SDS011;62511;47.970;11.774;2023-08-20T08:50:15;5.32;;;2.45;;
74158;SDS011;62511;47.970;11.774;2023-08-20T08:52:42;5.75;;;2.40;;
74158;SDS011;62511;47.970;11.774;2023-08-20T08:55:15;6.57;;;2.50;;
74158;SDS011;62511;47.970;11.774;2023-08-20T08:57:43;6.85;;;3.05;;
74158;SDS011;62511;47.970;11.774;2023-08-20T09:02:41;5.60;;;2.72;;
74158;SDS011;62511;47.970;11.774;2023-08-20T09:05:08;5.43;;;2.47;;
74158;SDS011;62511;47.970;11.774;2023-08-20T09:07:40;5.55;;;2.80;;
74158;SDS011;62511;47.970;11.774;2023-08-20T09:10:08;4.35;;;2.28;;
74158;SDS011;62511;47.970;11.774;2023-08-20T09:12:34;4.97;;;2.38;;
74158;SDS011;62511;47.970;11.774;2023-08-20T09:15:03;4.55;;;2.80;;
74158;SDS011;62511;47.970;11.774;2023-08-20T09:20:36;5.28;;;2.80;;
74158;SDS011;62511;47.970;11.774;2023-08-20T09:25:30;5.18;;;2.47;;
74158;SDS011;62511;47.970;11.774;2023-08-20T09:27:58;3.53;;;2.90;;
74158;SDS011;62511;47.970;11.774;2023-08-20T09:30:32;5.00;;;2.88;;
74158;SDS011;62511;47.970;11.774;2023-08-20T09:35:34;4.25;;;2.10;;
74158;SDS011;62511;47.970;11.774;2023-08-20T09:38:03;5.30;;;2.70;;
74158;SDS011;62511;47.970;11.774;2023-08-20T09:40:31;6.07;;;2.97;;
74158;SDS011;62511;47.970;11.774;2023-08-20T09:45:46;3.20;;;2.20;;
74158;SDS011;62511;47.970;11.774;2023-08-20T09:48:17;4.90;;;2.60;;
74158;SDS011;62511;47.970;11.774;2023-08-20T09:50:49;3.92;;;2.65;;
74158;SDS011;62511;47.970;11.774;2023-08-20T09:53:37;5.40;;;2.70;;
74158;SDS011;62511;47.970;11.774;2023-08-20T09:56:19;4.95;;;2.83;;
74158;SDS011;62511;47.970;11.774;2023-08-20T09:58:51;6.35;;;2.92;;
74158;SDS011;62511;47.970;11.774;2023-08-20T10:01:19;3.90;;;2.60;;
74158;SDS011;62511;47.970;11.774;2023-08-20T10:03:47;4.63;;;3.00;;
74158;SDS011;62511;47.970;11.774;2023-08-20T10:06:17;5.20;;;2.67;;
74158;SDS011;62511;47.970;11.774;2023-08-20T10:08:52;6.07;;;2.40;;
74158;SDS011;62511;47.970;11.774;2023-08-20T10:12:01;4.82;;;2.03;;
74158;SDS011;62511;47.970;11.774;2023-08-20T10:17:17;5.53;;;2.53;;
74158;SDS011;62511;47.970;11.774;2023-08-20T10:20:00;6.50;;;2.63;;
74158;SDS011;62511;47.970;11.774;2023-08-20T10:22:33;4.70;;;2.15;;
74158;SDS011;62511;47.970;11.774;2023-08-20T10:25:22;2.38;;;1.80;;
74158;SDS011;62511;47.970;11.774;2023-08-20T10:31:27;3.15;;;2.05;;
74158;SDS011;62511;47.970;11.774;2023-08-20T10:33:56;4.32;;;2.33;;
74158;SDS011;62511;47.970;11.774;2023-08-20T10:37:01;4.95;;;2.17;;
74158;SDS011;62511;47.970;11.774;2023-08-20T10:39:29;3.50;;;2.40;;
74158;SDS011;62511;47.970;11.774;2023-08-20T10:42:12;4.57;;;2.30;;
74158;SDS011;62511;47.970;11.774;2023-08-20T10:45:01;4.18;;;2.22;;
74158;SDS011;62511;47.970;11.774;2023-08-20T10:47:50;3.80;;;2.20;;
74158;SDS011;62511;47.970;11.774;2023-08-20T10:50:17;3.33;;;2.42;;
74158;SDS011;62511;47.970;11.774;2023-08-20T10:52:48;2.78;;;2.20;;
74158;SDS011;62511;47.970;11.774;2023-08-20T10:55:21;6.05;;;2.40;;
74158;SDS011;62511;47.970;11.774;2023-08-20T10:57:57;2.97;;;2.33;;
74158;SDS011;62511;47.970;11.774;2023-08-20T11:00:27;3.50;;;2.20;;
74158;SDS011;62511;47.970;11.774;2023-08-20T11:02:55;5.57;;;2.30;;
74158;SDS011;62511;47.970;11.774;2023-08-20T11:05:33;4.38;;;2.40;;
74158;SDS011;62511;47.970;11.774;2023-08-20T11:08:01;3.17;;;2.45;;
74158;SDS011;62511;47.970;11.774;2023-08-20T11:10:29;3.15;;;2.30;;
74158;SDS011;62511;47.970;11.774;2023-08-20T11:15:26;4.10;;;2.67;;
74158;SDS011;62511;47.970;11.774;2023-08-20T11:17:56;5.10;;;2.40;;
74158;SDS011;62511;47.970;11.774;2023-08-20T11:20:24;3.15;;;2.33;;
74158;SDS011;62511;47.970;11.774;2023-08-20T11:22:57;4.07;;;2.50;;
74158;SDS011;62511;47.970;11.774;2023-08-20T11:25:23;8.18;;;2.90;;
74158;SDS011;62511;47.970;11.774;2023-08-20T11:27:51;7.35;;;2.47;;
74158;SDS011;62511;47.970;11.774;2023-08-20T11:30:18;3.60;;;2.58;;
74158;SDS011;62511;47.970;11.774;2023-08-20T11:32:45;4.47;;;2.72;;
74158;SDS011;62511;47.970;11.774;2023-08-20T11:35:22;4.45;;;2.45;;
74158;SDS011;62511;47.970;11.774;2023-08-20T11:37:51;5.72;;;2.70;;
74158;SDS011;62511;47.970;11.774;2023-08-20T11:40:22;3.63;;;2.88;;
74158;SDS011;62511;47.970;11.774;2023-08-20T11:43:09;6.28;;;3.10;;
74158;SDS011;62511;47.970;11.774;2023-08-20T11:45:47;5.80;;;2.83;;
74158;SDS011;62511;47.970;11.774;2023-08-20T11:48:26;3.88;;;2.55;;
74158;SDS011;62511;47.970;11.774;2023-08-20T11:50:53;4.32;;;2.53;;
74158;SDS011;62511;47.970;11.774;2023-08-20T11:53:30;6.28;;;2.55;;
74158;SDS011;62511;47.970;11.774;2023-08-20T11:55:57;5.00;;;2.38;;
74158;SDS011;62511;47.970;11.774;2023-08-20T11:58:29;4.50;;;2.40;;
74158;SDS011;62511;47.970;11.774;2023-08-20T12:00:58;2.92;;;2.15;;
74158;SDS011;62511;47.970;11.774;2023-08-20T12:03:28;3.28;;;2.38;;
74158;SDS011;62511;47.970;11.774;2023-08-20T12:05:57;3.53;;;2.33;;
74158;SDS011;62511;47.970;11.774;2023-08-20T12:08:25;4.30;;;2.30;;
74158;SDS011;62511;47.970;11.774;2023-08-20T12:10:57;5.60;;;2.60;;
74158;SDS011;62511;47.970;11.774;2023-08-20T12:13:25;8.70;;;2.85;;
74158;SDS011;62511;47.970;11.774;2023-08-20T12:15:52;5.75;;;2.53;;
74158;SDS011;62511;47.970;11.774;2023-08-20T12:18:21;7.55;;;2.85;;
74158;SDS011;62511;47.970;11.774;2023-08-20T12:20:47;3.13;;;2.53;;
74158;SDS011;62511;47.970;11.774;2023-08-20T12:23:32;4.70;;;2.30;;
74158;SDS011;62511;47.970;11.774;2023-08-20T12:25:58;3.05;;;2.53;;
74158;SDS011;62511;47.970;11.774;2023-08-20T12:28:27;3.75;;;2.50;;
74158;SDS011;62511;47.970;11.774;2023-08-20T12:30:55;3.80;;;2.47;;
74158;SDS011;62511;47.970;11.774;2023-08-20T12:33:27;4.88;;;2.22;;
74158;SDS011;62511;47.970;11.774;2023-08-20T12:35:53;9.50;;;2.60;;
74158;SDS011;62511;47.970;11.774;2023-08-20T12:38:39;3.47;;;2.75;;
74158;SDS011;62511;47.970;11.774;2023-08-20T12:41:09;6.10;;;2.60;;
74158;SDS011;62511;47.970;11.774;2023-08-20T12:43:35;5.07;;;2.42;;
74158;SDS011;62511;47.970;11.774;2023-08-20T12:46:01;3.53;;;2.70;;
74158;SDS011;62511;47.970;11.774;2023-08-20T12:48:31;4.15;;;2.47;;
74158;SDS011;62511;47.970;11.774;2023-08-20T12:50:58;3.58;;;2.50;;
74158;SDS011;62511;47.970;11.774;2023-08-20T12:53:33;6.88;;;2.70;;
74158;SDS011;62511;47.970;11.774;2023-08-20T12:56:21;4.70;;;2.53;;
74158;SDS011;62511;47.970;11.774;2023-08-20T12:59:10;3.80;;;2.38;;
74158;SDS011;62511;47.970;11.774;2023-08-20T13:01:36;4.30;;;2.28;;
74158;SDS011;62511;47.970;11.774;2023-08-20T13:04:02;5.22;;;2.60;;
74158;SDS011;62511;47.970;11.774;2023-08-20T13:06:37;4.35;;;2.60;;
74158;SDS011;62511;47.970;11.774;2023-08-20T13:09:05;3.88;;;2.45;;
74158;SDS011;62511;47.970;11.774;2023-08-20T13:11:32;5.45;;;2.67;;
74158;SDS011;62511;47.970;11.774;2023-08-20T13:14:07;4.35;;;2.80;;
74158;SDS011;62511;47.970;11.774;2023-08-20T13:16:38;5.18;;;2.75;;
74158;SDS011;62511;47.970;11.774;2023-08-20T13:19:08;2.95;;;2.40;;
74158;SDS011;62511;47.970;11.774;2023-08-20T13:21:36;4.50;;;2.78;;
74158;SDS011;62511;47.970;11.774;2023-08-20T13:24:09;3.30;;;2.70;;
74158;SDS011;62511;47.970;11.774;2023-08-20T13:27:01;3.30;;;2.65;;
74158;SDS011;62511;47.970;11.774;2023-08-20T13:29:52;5.93;;;2.58;;
74158;SDS011;62511;47.970;11.774;2023-08-20T13:32:35;6.13;;;2.85;;
74158;SDS011;62511;47.970;11.774;2023-08-20T13:35:08;3.15;;;2.33;;
74158;SDS011;62511;47.970;11.774;2023-08-20T13:37:36;3.50;;;2.92;;
74158;SDS011;62511;47.970;11.774;2023-08-20T13:40:04;3.45;;;2.55;;
74158;SDS011;62511;47.970;11.774;2023-08-20T13:42:45;4.97;;;2.70;;
74158;SDS011;62511;47.970;11.774;2023-08-20T13:45:15;6.53;;;2.78;;
74158;SDS011;62511;47.970;11.774;2023-08-20T13:47:42;5.53;;;2.45;;
74158;SDS011;62511;47.970;11.774;2023-08-20T13:50:09;8.00;;;2.40;;
74158;SDS011;62511;47.970;11.774;2023-08-20T13:52:41;3.70;;;2.28;;
74158;SDS011;62511;47.970;11.774;2023-08-20T13:55:13;3.72;;;2.30;;
74158;SDS011;62511;47.970;11.774;2023-08-20T13:57:41;4.88;;;2.30;;
74158;SDS011;62511;47.970;11.774;2023-08-20T14:00:09;5.00;;;2.50;;
74158;SDS011;62511;47.970;11.774;2023-08-20T14:02:38;3.53;;;2.25;;
74158;SDS011;62511;47.970;11.774;2023-08-20T14:05:06;4.40;;;1.90;;
74158;SDS011;62511;47.970;11.774;2023-08-20T14:07:39;5.22;;;2.25;;
74158;SDS011;62511;47.970;11.774;2023-08-20T14:10:12;4.57;;;2.05;;
74158;SDS011;62511;47.970;11.774;2023-08-20T14:15:38;4.25;;;2.30;;
74158;SDS011;62511;47.970;11.774;2023-08-20T14:18:07;4.00;;;2.15;;
74158;SDS011;62511;47.970;11.774;2023-08-20T14:20:55;3.10;;;2.50;;
74158;SDS011;62511;47.970;11.774;2023-08-20T14:23:24;4.13;;;2.70;;
74158;SDS011;62511;47.970;11.774;2023-08-20T14:25:50;4.28;;;2.85;;
74158;SDS011;62511;47.970;11.774;2023-08-20T14:28:23;4.85;;;2.72;;
74158;SDS011;62511;47.970;11.774;2023-08-20T14:30:50;4.05;;;2.92;;
74158;SDS011;62511;47.970;11.774;2023-08-20T14:33:20;5.78;;;2.97;;
74158;SDS011;62511;47.970;11.774;2023-08-20T14:36:02;3.90;;;2.80;;
74158;SDS011;62511;47.970;11.774;2023-08-20T14:38:32;3.97;;;2.75;;
74158;SDS011;62511;47.970;11.774;2023-08-20T14:41:03;3.72;;;2.65;;
74158;SDS011;62511;47.970;11.774;2023-08-20T14:43:32;3.85;;;2.75;;
74158;SDS011;62511;47.970;11.774;2023-08-20T14:46:19;4.55;;;2.80;;
74158;SDS011;62511;47.970;11.774;2023-08-20T14:48:58;3.50;;;3.00;;
74158;SDS011;62511;47.970;11.774;2023-08-20T14:53:59;3.67;;;2.20;;
74158;SDS011;62511;47.970;11.774;2023-08-20T14:56:25;3.65;;;2.63;;
74158;SDS011;62511;47.970;11.774;2023-08-20T14:58:52;5.20;;;3.03;;
74158;SDS011;62511;47.970;11.774;2023-08-20T15:01:23;4.43;;;2.97;;
74158;SDS011;62511;47.970;11.774;2023-08-20T15:04:01;3.53;;;2.80;;
74158;SDS011;62511;47.970;11.774;2023-08-20T15:06:39;4.30;;;2.80;;
74158;SDS011;62511;47.970;11.774;2023-08-20T15:09:07;4.00;;;2.70;;
74158;SDS011;62511;47.970;11.774;2023-08-20T15:14:15;4.03;;;2.88;;
74158;SDS011;62511;47.970;11.774;2023-08-20T15:16:45;3.67;;;2.72;;
74158;SDS011;62511;47.970;11.774;2023-08-20T15:19:24;4.00;;;2.67;;
74158;SDS011;62511;47.970;11.774;2023-08-20T15:22:00;3.53;;;2.50;;
74158;SDS011;62511;47.970;11.774;2023-08-20T15:24:33;3.67;;;2.33;;
74158;SDS011;62511;47.970;11.774;2023-08-20T15:27:19;2.60;;;2.38;;
74158;SDS011;62511;47.970;11.774;2023-08-20T15:29:48;3.58;;;2.80;;
74158;SDS011;62511;47.970;11.774;2023-08-20T15:32:14;5.85;;;3.00;;
74158;SDS011;62511;47.970;11.774;2023-08-20T15:34:47;3.15;;;2.85;;
74158;SDS011;62511;47.970;11.774;2023-08-20T15:37:40;3.03;;;2.65;;
74158;SDS011;62511;47.970;11.774;2023-08-20T15:40:06;3.33;;;2.67;;
74158;SDS011;62511;47.970;11.774;2023-08-20T15:42:39;4.05;;;2.85;;
74158;SDS011;62511;47.970;11.774;2023-08-20T15:45:09;3.40;;;2.90;;
74158;SDS011;62511;47.970;11.774;2023-08-20T15:47:53;3.67;;;3.03;;
74158;SDS011;62511;47.970;11.774;2023-08-20T15:50:47;3.15;;;2.80;;
74158;SDS011;62511;47.970;11.774;2023-08-20T15:53:38;3.72;;;2.80;;
74158;SDS011;62511;47.970;11.774;2023-08-20T15:56:04;3.42;;;2.65;;
74158;SDS011;62511;47.970;11.774;2023-08-20T15:58:36;4.57;;;3.10;;
74158;SDS011;62511;47.970;11.774;2023-08-20T16:01:02;4.35;;;2.70;;
74158;SDS011;62511;47.970;11.774;2023-08-20T16:03:31;3.67;;;2.88;;
74158;SDS011;62511;47.970;11.774;2023-08-20T16:06:23;4.32;;;3.05;;